createdAt,value
2017-07-15T06:34:22.975Z,460
2017-07-15T06:35:24.329Z,936
2017-07-15T06:36:45.841Z,152
2017-07-15T06:37:47.198Z,1456
2017-07-15T06:39:08.728Z,1628
2017-07-15T06:40:10.086Z,1684
2017-07-15T06:41:31.601Z,1464
2017-07-15T06:42:32.965Z,1548
2017-07-15T06:43:54.497Z,1616
2017-07-15T06:44:55.886Z,1796
2017-07-15T06:46:17.383Z,1868
2017-07-15T06:47:19.614Z,1924
2017-07-15T06:48:41.436Z,1988
2017-07-15T06:49:42.798Z,1900
2017-07-15T06:51:04.318Z,1908
2017-07-15T06:52:05.689Z,1608
2017-07-15T06:53:27.228Z,1712
2017-07-15T06:54:28.591Z,1876
2017-07-15T06:55:50.113Z,1272
2017-07-15T06:56:51.481Z,1692
2017-07-15T06:58:13.022Z,1836
2017-07-15T06:59:14.387Z,1772
2017-07-15T07:00:35.911Z,1136
2017-07-15T07:01:38.190Z,984
2017-07-15T07:02:59.730Z,1612
2017-07-15T07:04:01.095Z,1640
2017-07-15T07:05:22.648Z,1700
2017-07-15T07:06:24.017Z,1760
2017-07-15T07:07:45.553Z,1496
2017-07-15T07:08:46.919Z,1380
2017-07-15T07:10:08.446Z,1304
2017-07-15T07:11:09.814Z,1648
2017-07-15T07:12:31.377Z,1712
2017-07-15T07:13:32.746Z,1724
2017-07-15T07:14:54.268Z,1704
2017-07-15T07:15:55.636Z,2000
2017-07-15T07:17:17.187Z,2032
2017-07-15T07:18:18.671Z,1496
2017-07-15T07:19:40.238Z,1440
2017-07-15T07:20:41.605Z,1624
2017-07-15T07:22:03.201Z,1684
2017-07-15T07:23:04.599Z,2108
2017-07-15T07:24:26.110Z,1536
2017-07-15T07:25:27.475Z,1328
2017-07-15T07:26:49.005Z,968
2017-07-15T07:27:50.363Z,760
2017-07-15T07:29:11.901Z,612
2017-07-15T15:15:57.108Z,2860
2017-07-15T15:16:58.493Z,2588
2017-07-15T15:18:20.007Z,3256
2017-07-15T15:19:21.371Z,3236
2017-07-15T15:20:42.898Z,3084
2017-07-15T15:21:44.261Z,1544
2017-07-15T15:23:05.803Z,3488
2017-07-15T15:24:07.170Z,2396
2017-07-15T15:25:29.813Z,2836
2017-07-15T15:26:31.865Z,2724
2017-07-15T15:27:53.438Z,2596
2017-07-15T15:28:54.810Z,2480
2017-07-15T15:30:16.335Z,2128
2017-07-15T15:31:17.703Z,1308
2017-07-15T15:32:39.258Z,1128
2017-07-15T15:44:45.182Z,1384
2017-07-15T15:45:46.640Z,1424
2017-07-15T15:47:08.275Z,1172
2017-07-15T15:48:09.648Z,1176
2017-07-15T18:32:37.957Z,1692
2017-07-15T18:33:39.328Z,1668
2017-07-15T18:35:00.864Z,1680
2017-07-15T18:44:32.452Z,1452
2017-07-15T18:45:33.818Z,1420
2017-07-15T18:46:55.337Z,1308
2017-07-15T18:47:56.700Z,1240
2017-07-15T18:49:18.235Z,1152
2017-07-15T18:50:19.599Z,1088
2017-07-15T18:51:41.115Z,1020
2017-07-15T18:52:42.477Z,976
2017-07-15T18:54:04.018Z,956
2017-07-15T18:55:05.384Z,968
2017-07-15T18:56:26.900Z,964
2017-07-15T18:57:28.284Z,952
2017-07-15T18:58:49.826Z,932
2017-07-15T18:59:51.187Z,924
2017-07-15T19:01:12.709Z,888
2017-07-15T19:02:14.072Z,888
2017-07-15T19:03:35.608Z,884
2017-07-15T19:04:36.971Z,872
2017-07-15T19:05:58.493Z,880
2017-07-15T19:06:59.873Z,900
2017-07-15T19:08:21.400Z,888
2017-07-15T19:09:22.806Z,892
2017-07-15T19:10:44.327Z,900
2017-07-15T19:11:45.691Z,912
2017-07-15T19:13:07.239Z,932
2017-07-15T19:14:08.601Z,928
2017-07-15T19:15:30.157Z,892
2017-07-15T19:16:31.523Z,852
2017-07-15T19:17:53.043Z,792
2017-07-15T19:18:54.409Z,732
2017-07-15T19:20:15.967Z,652
2017-07-15T19:21:17.331Z,596
2017-07-15T19:22:38.898Z,524
2017-07-15T19:23:40.261Z,484
2017-07-15T19:25:01.805Z,440
2017-07-15T19:26:03.176Z,412
2017-07-15T19:27:24.878Z,388
2017-07-15T19:28:26.241Z,368
2017-07-15T19:29:47.783Z,332
2017-07-15T19:30:49.146Z,304
2017-07-15T19:32:11.199Z,268
2017-07-15T19:33:12.561Z,248
2017-07-15T19:34:34.106Z,216
2017-07-15T19:35:35.467Z,196
2017-07-15T19:36:56.988Z,160
2017-07-15T19:37:58.357Z,136
2017-07-15T19:39:19.886Z,112
2017-07-15T19:40:21.251Z,104
2017-07-15T19:41:42.764Z,92
2017-07-15T19:42:44.174Z,88
2017-07-15T19:44:05.708Z,76
2017-07-15T19:45:07.066Z,72
2017-07-15T19:46:28.585Z,64
2017-07-15T19:47:29.979Z,60
2017-07-15T19:48:51.517Z,52
2017-07-15T19:49:52.876Z,52
2017-07-15T19:51:14.400Z,44
2017-07-15T19:52:15.768Z,40
2017-07-15T19:53:37.318Z,36
2017-07-15T19:54:38.681Z,32
2017-07-15T19:56:00.194Z,28
2017-07-15T19:57:01.554Z,28
2017-07-15T19:58:23.073Z,20
2017-07-15T19:59:24.462Z,16
2017-07-15T20:00:45.993Z,16
2017-07-15T20:01:47.359Z,12
2017-07-15T20:03:08.870Z,12
2017-07-15T20:04:10.231Z,8
2017-07-15T20:05:31.769Z,8
2017-07-15T20:06:33.129Z,8
2017-07-15T20:07:54.821Z,8
2017-07-15T20:08:56.181Z,4
2017-07-15T20:10:17.944Z,8
2017-07-15T20:11:19.302Z,4
2017-07-15T20:12:40.830Z,4
2017-07-15T20:13:42.190Z,4
2017-07-15T20:15:03.718Z,0
2017-07-15T20:16:05.078Z,4
2017-07-15T20:17:26.588Z,4
2017-07-15T20:18:27.948Z,4
2017-07-15T20:19:49.481Z,0
2017-07-15T20:20:50.838Z,0
2017-07-15T20:22:12.353Z,0
2017-07-15T20:23:13.713Z,0
2017-07-15T20:24:35.253Z,0
2017-07-15T20:25:36.612Z,0
2017-07-15T20:26:58.128Z,0
2017-07-15T20:27:59.491Z,0
2017-07-15T20:29:21.025Z,0
2017-07-15T20:30:22.385Z,0
2017-07-15T20:31:43.898Z,0
2017-07-15T20:32:45.414Z,0
2017-07-15T20:34:06.949Z,0
2017-07-15T20:35:08.309Z,0
2017-07-15T20:36:29.858Z,0
2017-07-15T20:37:31.232Z,0
2017-07-15T20:38:52.746Z,0
2017-07-15T20:39:54.110Z,0
2017-07-15T20:41:15.645Z,0
2017-07-15T20:42:17.004Z,0
2017-07-15T20:43:38.518Z,0
2017-07-15T20:44:39.879Z,0
2017-07-15T20:46:01.416Z,0
2017-07-15T20:47:02.775Z,0
2017-07-15T20:48:24.289Z,0
2017-07-15T20:49:25.648Z,0
2017-07-15T20:50:47.336Z,0
2017-07-15T20:51:48.696Z,0
2017-07-15T20:53:10.211Z,0
2017-07-15T20:54:11.574Z,0
2017-07-15T20:55:33.102Z,0
2017-07-15T20:56:34.462Z,0
2017-07-15T20:57:55.978Z,0
2017-07-15T20:58:57.335Z,0
2017-07-15T21:00:18.873Z,0
2017-07-15T21:01:20.232Z,4
2017-07-15T21:02:41.743Z,0
2017-07-15T21:03:43.105Z,0
2017-07-15T21:05:04.648Z,0
2017-07-15T21:06:06.012Z,0
2017-07-15T21:07:27.523Z,0
2017-07-15T21:08:28.883Z,0
2017-07-15T21:09:50.433Z,0
2017-07-15T21:10:51.790Z,0
2017-07-15T21:12:13.304Z,0
2017-07-15T21:13:14.668Z,0
2017-07-15T21:14:36.198Z,0
2017-07-15T21:15:37.555Z,0
2017-07-15T21:16:59.069Z,0
2017-07-15T21:18:00.429Z,0
2017-07-15T21:19:21.964Z,0
2017-07-15T21:20:23.325Z,0
2017-07-15T21:21:44.835Z,0
2017-07-15T21:22:46.196Z,0
2017-07-15T21:24:07.707Z,0
2017-07-15T21:25:09.067Z,0
2017-07-15T21:26:30.600Z,0
2017-07-15T21:27:31.954Z,0
2017-07-15T21:28:53.483Z,0
2017-07-15T21:29:54.844Z,0
2017-07-15T21:31:16.378Z,0
2017-07-15T21:32:17.736Z,0
2017-07-15T21:33:39.244Z,0
2017-07-15T21:34:40.608Z,0
2017-07-15T21:36:02.136Z,0
2017-07-15T21:37:03.494Z,0
2017-07-15T21:38:25.005Z,0
2017-07-15T21:39:26.364Z,0
2017-07-15T21:40:47.899Z,0
2017-07-15T21:41:49.257Z,0
2017-07-15T21:43:10.768Z,0
2017-07-15T21:44:12.127Z,0
2017-07-15T21:45:33.656Z,0
2017-07-15T21:46:35.014Z,0
2017-07-15T21:47:56.528Z,0
2017-07-15T21:48:57.887Z,0
2017-07-15T21:50:19.417Z,0
2017-07-15T21:51:20.774Z,0
2017-07-15T21:52:42.284Z,0
2017-07-15T21:53:43.642Z,0
2017-07-15T21:55:05.177Z,0
2017-07-15T21:56:06.534Z,0
2017-07-15T21:57:28.060Z,0
2017-07-15T21:58:29.410Z,0
2017-07-15T21:59:50.943Z,0
2017-07-15T22:00:52.300Z,0
2017-07-15T22:02:13.812Z,0
2017-07-15T22:03:15.171Z,0
2017-07-15T22:04:36.702Z,0
2017-07-15T22:05:38.059Z,0
2017-07-15T22:06:59.574Z,0
2017-07-15T22:08:00.931Z,0
2017-07-15T22:09:22.447Z,0
2017-07-15T22:10:23.805Z,0
2017-07-15T22:11:45.338Z,0
2017-07-15T22:12:46.696Z,0
2017-07-15T22:14:08.204Z,0
